createdAt,value
2023-01-20T00:01:55.152Z,39.50
2023-01-20T00:05:27.292Z,47.03
2023-01-20T00:09:00.778Z,50.33
2023-01-20T00:12:33.022Z,36.47
2023-01-20T00:16:06.926Z,39.85
2023-01-20T00:19:38.909Z,49.33
2023-01-20T00:23:11.009Z,37.10
2023-01-20T00:26:45.438Z,39.43
2023-01-20T00:30:17.638Z,36.90
2023-01-20T00:33:50.912Z,41.78
2023-01-20T00:37:23.310Z,44.00
2023-01-20T00:40:56.131Z,42.20
2023-01-20T00:44:28.298Z,40.00
2023-01-20T00:48:00.343Z,50.10
2023-01-20T00:51:32.125Z,50.42
2023-01-20T00:55:04.320Z,43.95
2023-01-20T00:58:36.256Z,48.50
2023-01-20T01:02:08.477Z,48.33
2023-01-20T01:05:42.195Z,49.22
2023-01-20T01:09:14.530Z,46.70
2023-01-20T01:12:46.408Z,50.60
2023-01-20T01:16:18.603Z,46.72
2023-01-20T01:19:53.255Z,50.42
2023-01-20T01:23:25.372Z,46.63
2023-01-20T01:26:57.131Z,50.97
2023-01-20T01:30:29.265Z,39.30
2023-01-20T01:34:01.056Z,41.58
2023-01-20T01:37:33.078Z,50.03
2023-01-20T01:41:05.224Z,49.17
2023-01-20T01:44:39.536Z,42.28
2023-01-20T01:48:11.339Z,44.27
2023-01-20T01:51:51.400Z,49.65
2023-01-20T01:55:27.365Z,42.15
2023-01-20T01:59:02.521Z,38.13
2023-01-20T02:02:36.202Z,38.40
2023-01-20T02:06:10.777Z,43.65
2023-01-20T02:09:42.524Z,48.75
2023-01-20T02:13:15.030Z,52.67
2023-01-20T02:17:12.522Z,53.45
2023-01-20T02:20:56.515Z,53.30
2023-01-20T02:24:42.497Z,44.87
2023-01-20T02:28:48.268Z,53.50
2023-01-20T02:32:47.096Z,45.60
2023-01-20T02:36:31.257Z,52.60
2023-01-20T02:40:31.384Z,52.63
2023-01-20T02:44:12.388Z,44.38
2023-01-20T02:48:06.188Z,45.40
2023-01-20T02:52:15.534Z,41.40
2023-01-20T02:55:48.867Z,40.33
2023-01-20T02:59:26.441Z,44.38
2023-01-20T03:03:02.223Z,36.43
2023-01-20T03:06:38.043Z,43.50
2023-01-20T03:10:17.181Z,43.78
2023-01-20T03:14:08.168Z,49.23
2023-01-20T03:17:40.755Z,44.70
2023-01-20T03:21:13.732Z,53.08
2023-01-20T03:24:48.376Z,55.45
2023-01-20T03:28:20.111Z,45.37
2023-01-20T03:31:56.953Z,55.42
2023-01-20T03:35:29.025Z,47.33
2023-01-20T03:39:01.404Z,55.13
2023-01-20T03:42:48.868Z,41.92
2023-01-20T03:46:32.355Z,50.60
2023-01-20T03:50:19.329Z,46.63
2023-01-20T03:54:06.292Z,40.88
2023-01-20T03:57:46.578Z,44.22
2023-01-20T04:01:23.351Z,47.13
2023-01-20T04:04:57.958Z,45.30
2023-01-20T04:08:34.906Z,45.95
2023-01-20T04:12:07.166Z,44.92
2023-01-20T04:15:44.501Z,48.90
2023-01-20T04:19:16.408Z,45.05
2023-01-20T04:22:57.312Z,49.10
2023-01-20T04:26:29.158Z,45.80
2023-01-20T04:30:01.330Z,49.60
2023-01-20T04:33:36.197Z,41.30
2023-01-20T04:37:08.360Z,39.83
2023-01-20T04:40:40.247Z,44.43
2023-01-20T04:44:12.228Z,35.70
2023-01-20T04:47:45.304Z,45.17
2023-01-20T04:51:17.414Z,43.70
2023-01-20T04:54:49.160Z,44.72
2023-01-20T04:58:21.221Z,46.28
2023-01-20T05:01:53.223Z,43.07
2023-01-20T05:05:25.439Z,43.65
2023-01-20T05:08:57.253Z,40.13
2023-01-20T05:12:29.387Z,40.22
2023-01-20T05:16:02.984Z,39.57
2023-01-20T05:19:35.186Z,46.47
2023-01-20T05:23:07.248Z,40.53
2023-01-20T05:26:39.652Z,39.10
2023-01-20T05:30:12.108Z,40.72
2023-01-20T05:33:44.630Z,48.50
2023-01-20T05:37:19.591Z,40.37
2023-01-20T05:40:59.729Z,46.25
2023-01-20T05:44:31.848Z,45.58
2023-01-20T05:48:04.463Z,44.47
2023-01-20T05:51:36.281Z,34.87
2023-01-20T05:55:08.697Z,42.92
2023-01-20T05:58:40.457Z,41.50
2023-01-20T06:02:13.448Z,42.60
2023-01-20T06:05:45.145Z,38.00
2023-01-20T06:09:18.479Z,45.42
2023-01-20T06:12:56.580Z,45.77
2023-01-20T06:16:29.885Z,43.60
2023-01-20T06:20:02.187Z,38.83
2023-01-20T06:23:34.696Z,47.72
2023-01-20T06:27:06.588Z,42.10
2023-01-20T06:30:38.725Z,45.63
2023-01-20T06:34:11.682Z,38.40
2023-01-20T06:37:43.813Z,41.30
2023-01-20T06:41:15.585Z,45.85
2023-01-20T06:44:47.790Z,39.50
2023-01-20T06:48:19.837Z,44.07
2023-01-20T06:51:52.203Z,43.97
2023-01-20T06:55:24.534Z,34.35
2023-01-20T06:58:56.416Z,51.55
2023-01-20T07:02:28.627Z,43.90
2023-01-20T07:06:03.120Z,44.88
2023-01-20T07:09:35.189Z,46.00
2023-01-20T07:13:07.255Z,38.07
2023-01-20T07:16:39.040Z,43.05
2023-01-20T07:20:11.689Z,37.70
2023-01-20T07:23:43.809Z,39.80
2023-01-20T07:27:16.172Z,41.88
2023-01-20T07:30:48.965Z,42.40
2023-01-20T07:34:21.054Z,40.38
2023-01-20T07:37:52.848Z,36.03
2023-01-20T07:41:24.925Z,46.25
2023-01-20T07:44:56.652Z,42.55
2023-01-20T07:48:31.543Z,37.63
2023-01-20T07:52:03.453Z,40.90
2023-01-20T07:55:35.466Z,44.45
2023-01-20T07:59:07.680Z,39.20
2023-01-20T08:02:43.251Z,42.42
2023-01-20T08:06:17.411Z,49.42
2023-01-20T08:09:50.257Z,45.75
2023-01-20T08:13:22.212Z,40.07
2023-01-20T08:16:54.360Z,44.40
2023-01-20T08:20:26.558Z,46.00
2023-01-20T08:24:00.386Z,54.20
2023-01-20T08:27:32.515Z,40.95
2023-01-20T08:31:08.253Z,40.72
2023-01-20T08:34:40.539Z,43.70
2023-01-20T08:38:13.354Z,37.75
2023-01-20T08:41:46.402Z,36.80
2023-01-20T08:45:18.777Z,36.38
2023-01-20T08:48:51.139Z,40.53
2023-01-20T08:52:23.195Z,34.10
2023-01-20T08:55:59.414Z,41.78
2023-01-20T08:59:31.441Z,38.47
2023-01-20T09:03:03.602Z,37.50
2023-01-20T09:06:44.371Z,43.42
2023-01-20T09:10:16.803Z,39.03
2023-01-20T09:13:48.919Z,44.17
2023-01-20T09:17:21.027Z,44.85
2023-01-20T09:20:52.821Z,37.47
2023-01-20T09:24:25.074Z,35.57
2023-01-20T09:28:01.406Z,39.30
2023-01-20T09:31:33.910Z,37.08
2023-01-20T09:35:07.608Z,37.70
2023-01-20T09:39:03.588Z,40.63
2023-01-20T09:43:19.176Z,39.17
2023-01-20T09:47:10.797Z,40.00
2023-01-20T09:51:13.087Z,40.63
2023-01-20T09:54:55.054Z,41.33
2023-01-20T09:58:37.054Z,37.13
2023-01-20T10:02:25.533Z,44.67
2023-01-20T10:06:01.799Z,40.65
2023-01-20T10:09:58.427Z,35.13
2023-01-20T10:13:40.943Z,38.60
2023-01-20T10:17:18.593Z,41.10
2023-01-20T10:20:57.506Z,41.83
2023-01-20T10:24:34.146Z,40.37
2023-01-20T10:28:12.391Z,38.17
2023-01-20T10:31:51.370Z,42.88
2023-01-20T10:35:26.902Z,42.33
2023-01-20T10:39:19.663Z,37.73
2023-01-20T10:42:57.513Z,38.05
2023-01-20T10:47:06.919Z,44.15
2023-01-20T10:51:04.990Z,41.53
2023-01-20T10:54:51.698Z,43.25
2023-01-20T10:58:26.632Z,41.08
2023-01-20T11:02:12.171Z,44.13
2023-01-20T11:05:46.887Z,42.45
2023-01-20T11:09:37.572Z,39.72
2023-01-20T11:13:10.863Z,35.67
2023-01-20T11:16:46.771Z,41.77
2023-01-20T11:20:20.819Z,42.15
2023-01-20T11:23:57.460Z,39.92
2023-01-20T11:27:42.508Z,48.00
2023-01-20T11:31:14.481Z,44.38
2023-01-20T11:34:50.837Z,44.28
2023-01-20T11:38:25.586Z,40.37
2023-01-20T11:42:17.999Z,42.75
2023-01-20T11:45:49.736Z,48.42
2023-01-20T11:49:22.685Z,36.60
2023-01-20T11:53:12.610Z,41.37
2023-01-20T11:56:47.308Z,34.90
2023-01-20T12:00:19.065Z,33.90
2023-01-20T12:04:22.578Z,33.63
2023-01-20T12:07:56.282Z,37.90
2023-01-20T12:11:35.436Z,38.50
2023-01-20T12:15:11.577Z,38.77
2023-01-20T12:19:01.878Z,45.15
2023-01-20T12:22:47.158Z,52.35
2023-01-20T12:26:22.253Z,39.17
2023-01-20T12:29:58.963Z,40.13
2023-01-20T12:33:45.662Z,38.28
2023-01-20T12:37:44.455Z,42.80
2023-01-20T12:41:43.043Z,45.03
2023-01-20T12:45:26.800Z,37.67
2023-01-20T12:49:32.197Z,49.20
2023-01-20T12:53:24.237Z,41.03
2023-01-20T12:56:56.682Z,49.58
2023-01-20T13:00:50.553Z,47.55
2023-01-20T13:04:59.775Z,45.00
2023-01-20T13:08:37.831Z,54.90
2023-01-20T13:12:19.497Z,52.30
2023-01-20T13:16:02.822Z,49.72
2023-01-20T13:19:38.983Z,59.90
2023-01-20T13:23:15.807Z,61.97
2023-01-20T13:26:49.186Z,64.78
2023-01-20T13:30:43.055Z,61.37
2023-01-20T13:34:21.472Z,64.97
2023-01-20T13:37:56.507Z,65.43
2023-01-20T13:41:53.226Z,63.30
2023-01-20T13:45:27.727Z,71.80
2023-01-20T13:49:22.231Z,66.97
2023-01-20T13:53:00.044Z,60.38
2023-01-20T13:56:33.254Z,59.40
2023-01-20T14:00:12.395Z,61.15
2023-01-20T14:03:44.340Z,58.00
2023-01-20T14:07:27.677Z,59.07
2023-01-20T14:11:17.154Z,62.88
2023-01-20T14:14:50.358Z,61.75
2023-01-20T14:18:25.190Z,66.45
2023-01-20T14:22:01.879Z,60.07
2023-01-20T14:25:33.650Z,56.80
2023-01-20T14:29:05.798Z,54.33
2023-01-20T14:32:38.329Z,52.77
2023-01-20T14:36:15.363Z,56.33
2023-01-20T14:39:50.513Z,56.25
2023-01-20T14:43:22.711Z,49.20
2023-01-20T14:46:58.270Z,60.63
2023-01-20T14:50:31.405Z,58.75
2023-01-20T14:54:31.021Z,63.88
2023-01-20T14:58:09.659Z,61.37
2023-01-20T15:01:42.701Z,53.80
2023-01-20T15:05:22.003Z,60.85
2023-01-20T15:09:06.015Z,60.97
2023-01-20T15:12:44.909Z,62.88
2023-01-20T15:16:19.944Z,76.15
2023-01-20T15:19:52.908Z,79.43
2023-01-20T15:23:27.493Z,81.97
2023-01-20T15:27:01.638Z,74.30
2023-01-20T15:30:33.511Z,93.68
2023-01-20T15:34:05.555Z,69.43
2023-01-20T15:37:37.516Z,78.70
2023-01-20T15:41:12.840Z,68.20
2023-01-20T15:44:44.566Z,58.30
2023-01-20T15:48:19.822Z,75.78
2023-01-20T15:51:51.589Z,63.10
2023-01-20T15:55:23.840Z,71.00
2023-01-20T15:58:56.498Z,59.65
2023-01-20T16:02:28.648Z,69.45
2023-01-20T16:06:01.108Z,62.97
2023-01-20T16:09:37.215Z,60.23
2023-01-20T16:13:10.385Z,68.57
2023-01-20T16:16:42.626Z,65.57
2023-01-20T16:20:20.226Z,64.57
2023-01-20T16:23:52.236Z,63.50
2023-01-20T16:27:24.470Z,60.63
2023-01-20T16:30:57.812Z,70.00
2023-01-20T16:34:29.556Z,68.97
2023-01-20T16:38:03.983Z,64.53
2023-01-20T16:41:37.125Z,74.63
2023-01-20T16:45:23.185Z,66.97
2023-01-20T16:48:59.321Z,70.82
2023-01-20T16:52:31.467Z,67.45
2023-01-20T16:56:03.267Z,63.63
2023-01-20T16:59:35.440Z,68.68
2023-01-20T17:03:09.065Z,62.20
2023-01-20T17:06:41.278Z,67.20
2023-01-20T17:10:12.963Z,65.78
2023-01-20T17:13:45.304Z,70.07
2023-01-20T17:17:17.177Z,66.45
2023-01-20T17:20:49.227Z,65.10
2023-01-20T17:24:21.199Z,64.68
2023-01-20T17:27:53.327Z,58.88
2023-01-20T17:31:25.487Z,55.40
2023-01-20T17:34:57.567Z,59.70
2023-01-20T17:38:31.375Z,59.78
2023-01-20T17:42:03.895Z,64.97
2023-01-20T17:45:36.135Z,73.18
2023-01-20T17:49:08.166Z,65.65
2023-01-20T17:52:40.410Z,70.25
2023-01-20T17:56:13.942Z,68.83
2023-01-20T17:59:46.335Z,63.95
2023-01-20T18:03:18.185Z,60.80
2023-01-20T18:06:50.394Z,57.73
2023-01-20T18:10:22.351Z,56.75
2023-01-20T18:13:55.925Z,57.33
2023-01-20T18:17:27.767Z,55.37
2023-01-20T18:21:10.802Z,58.72
2023-01-20T18:24:42.595Z,51.95
2023-01-20T18:28:14.797Z,45.40
2023-01-20T18:31:46.986Z,49.37
2023-01-20T18:35:19.444Z,62.03
2023-01-20T18:38:53.492Z,49.97
2023-01-20T18:42:25.907Z,55.33
2023-01-20T18:45:58.076Z,60.95
2023-01-20T18:49:29.858Z,52.40
2023-01-20T18:53:02.159Z,48.33
2023-01-20T18:56:34.590Z,48.45
2023-01-20T19:00:08.341Z,47.83
2023-01-20T19:03:46.146Z,48.00
2023-01-20T19:07:18.801Z,47.43
2023-01-20T19:10:51.101Z,42.38
2023-01-20T19:14:23.333Z,49.00
2023-01-20T19:17:55.913Z,51.90
2023-01-20T19:21:31.156Z,45.70
2023-01-20T19:25:03.632Z,46.80
2023-01-20T19:28:35.981Z,47.03
2023-01-20T19:32:09.286Z,43.45
2023-01-20T19:35:42.181Z,48.05
2023-01-20T19:39:14.349Z,46.17
2023-01-20T19:42:52.477Z,41.63
2023-01-20T19:46:30.342Z,43.78
2023-01-20T19:50:03.851Z,50.17
2023-01-20T19:53:36.708Z,44.40
2023-01-20T19:57:09.125Z,44.15
2023-01-20T20:00:41.585Z,46.95
2023-01-20T20:04:14.090Z,35.50
2023-01-20T20:07:46.281Z,40.97
2023-01-20T20:11:19.953Z,40.22
2023-01-20T20:14:53.154Z,33.83
2023-01-20T20:18:27.123Z,37.57
2023-01-20T20:21:59.225Z,32.63
2023-01-20T20:25:31.979Z,37.85
2023-01-20T20:29:06.477Z,32.27
2023-01-20T20:32:39.491Z,35.35
2023-01-20T20:36:12.668Z,31.55
2023-01-20T20:39:45.706Z,41.17
2023-01-20T20:43:22.975Z,57.28
2023-01-20T20:46:55.241Z,26.38
2023-01-20T20:50:28.831Z,29.50
2023-01-20T20:54:03.047Z,25.40
2023-01-20T20:57:35.600Z,32.45
2023-01-20T21:01:16.361Z,30.08
2023-01-20T21:04:49.259Z,39.13
2023-01-20T21:08:21.285Z,30.13
2023-01-20T21:11:54.714Z,34.80
2023-01-20T21:15:27.933Z,25.37
2023-01-20T21:19:01.358Z,26.38
2023-01-20T21:22:34.335Z,29.17
2023-01-20T21:26:09.921Z,31.38
2023-01-20T21:29:44.347Z,28.33
2023-01-20T21:33:17.792Z,24.90
2023-01-20T21:36:50.394Z,30.17
2023-01-20T21:40:22.526Z,26.17
2023-01-20T21:44:13.548Z,25.15
2023-01-20T21:47:45.757Z,30.23
2023-01-20T21:51:36.614Z,23.67
2023-01-20T21:55:19.203Z,27.25
2023-01-20T21:58:51.817Z,27.65
2023-01-20T22:02:24.045Z,28.67
2023-01-20T22:05:56.333Z,30.83
2023-01-20T22:09:28.210Z,31.00
2023-01-20T22:13:00.386Z,32.33
2023-01-20T22:16:32.571Z,29.13
2023-01-20T22:20:06.333Z,31.65
2023-01-20T22:23:38.695Z,34.15
2023-01-20T22:27:10.592Z,33.67
2023-01-20T22:30:44.543Z,27.67
2023-01-20T22:34:16.294Z,31.42
2023-01-20T22:37:48.873Z,30.92
2023-01-20T22:41:21.397Z,25.47
2023-01-20T22:44:53.682Z,27.90
2023-01-20T22:48:25.902Z,26.17
2023-01-20T22:51:58.137Z,27.50
2023-01-20T22:55:31.199Z,29.38
2023-01-20T22:59:03.619Z,29.10
2023-01-20T23:02:37.171Z,35.33
2023-01-20T23:06:10.434Z,27.13
2023-01-20T23:09:42.561Z,29.10
2023-01-20T23:13:16.274Z,28.50
2023-01-20T23:16:48.077Z,36.33
2023-01-20T23:20:20.423Z,30.50
2023-01-20T23:23:55.075Z,32.92
2023-01-20T23:27:27.144Z,35.47
2023-01-20T23:31:08.088Z,29.65
2023-01-20T23:34:40.320Z,35.70
2023-01-20T23:38:12.287Z,26.83
2023-01-20T23:41:44.054Z,26.73
2023-01-20T23:45:16.209Z,28.50
2023-01-20T23:48:47.996Z,22.77
2023-01-20T23:52:21.609Z,30.20
2023-01-20T23:55:58.198Z,29.33
2023-01-20T23:59:31.242Z,30.08
